createdAt,value
2019-02-26T00:02:21.497Z,76.35
2019-02-26T00:04:54.083Z,74.90
2019-02-26T00:07:28.133Z,80.42
2019-02-26T00:09:59.625Z,75.70
2019-02-26T00:15:07.038Z,61.98
2019-02-26T00:17:40.551Z,64.12
2019-02-26T00:20:12.809Z,59.03
2019-02-26T00:22:44.658Z,56.80
2019-02-26T00:25:17.826Z,56.23
2019-02-26T00:27:50.257Z,64.45
2019-02-26T00:32:53.231Z,54.42
2019-02-26T00:35:27.683Z,50.65
2019-02-26T00:40:29.601Z,59.90
2019-02-26T00:43:02.542Z,55.92
2019-02-26T00:45:36.238Z,56.45
2019-02-26T00:48:06.977Z,53.02
2019-02-26T00:50:39.811Z,40.43
2019-02-26T00:55:41.678Z,57.60
2019-02-26T00:58:12.931Z,51.98
2019-02-26T01:00:44.186Z,59.30
2019-02-26T01:03:15.483Z,57.08
2019-02-26T01:05:46.705Z,57.58
2019-02-26T01:08:19.715Z,53.08
2019-02-26T01:10:51.101Z,56.95
2019-02-26T01:13:25.011Z,54.88
2019-02-26T01:15:55.388Z,49.20
2019-02-26T01:18:27.229Z,53.33
2019-02-26T01:21:00.251Z,47.98
2019-02-26T01:23:32.666Z,50.48
2019-02-26T01:26:03.956Z,54.42
2019-02-26T01:28:35.238Z,54.67
2019-02-26T01:31:07.366Z,60.90
2019-02-26T01:33:39.042Z,63.45
2019-02-26T01:36:10.286Z,52.25
2019-02-26T01:38:42.159Z,55.83
2019-02-26T01:41:15.571Z,55.35
2019-02-26T01:43:47.602Z,63.28
2019-02-26T01:46:18.998Z,48.50
2019-02-26T01:48:50.227Z,49.55
2019-02-26T01:51:22.304Z,37.67
2019-02-26T01:53:54.438Z,40.95
2019-02-26T01:56:25.666Z,42.08
2019-02-26T01:59:02.063Z,33.38
2019-02-26T02:04:00.508Z,35.88
2019-02-26T02:06:33.103Z,37.10
2019-02-26T02:09:05.069Z,46.20
2019-02-26T02:11:38.033Z,45.40
2019-02-26T02:16:42.492Z,33.23
2019-02-26T02:19:18.029Z,32.38
2019-02-26T02:21:49.314Z,36.95
2019-02-26T02:24:22.846Z,34.65
2019-02-26T02:26:55.671Z,29.87
2019-02-26T02:29:28.622Z,35.45
2019-02-26T02:32:04.453Z,27.73
2019-02-26T02:37:05.088Z,33.45
2019-02-26T02:39:36.325Z,31.52
2019-02-26T02:42:08.356Z,35.55
2019-02-26T02:44:42.189Z,35.70
2019-02-26T02:47:13.617Z,28.42
2019-02-26T02:49:45.101Z,29.18
2019-02-26T02:52:16.394Z,24.98
2019-02-26T02:54:50.024Z,28.00
2019-02-26T02:57:24.299Z,27.27
2019-02-26T02:59:56.883Z,23.92
2019-02-26T03:02:29.019Z,37.80
2019-02-26T03:05:00.404Z,42.23
2019-02-26T03:07:31.649Z,51.70
2019-02-26T03:10:06.672Z,44.45
2019-02-26T03:12:38.275Z,40.43
2019-02-26T03:15:13.082Z,48.42
2019-02-26T03:17:44.396Z,44.60
2019-02-26T03:20:15.753Z,35.30
2019-02-26T03:22:49.174Z,37.10
2019-02-26T03:25:23.343Z,28.80
2019-02-26T03:27:53.118Z,31.02
2019-02-26T03:30:32.225Z,36.65
2019-02-26T03:35:29.932Z,24.98
2019-02-26T03:38:03.599Z,24.25
2019-02-26T03:40:36.151Z,24.98
2019-02-26T03:43:08.372Z,26.35
2019-02-26T03:45:40.647Z,30.60
2019-02-26T03:48:12.092Z,26.52
2019-02-26T03:50:44.605Z,24.27
2019-02-26T03:53:15.996Z,25.02
2019-02-26T03:55:48.344Z,27.77
2019-02-26T03:58:19.631Z,28.83
2019-02-26T04:00:50.919Z,20.82
2019-02-26T04:03:22.257Z,23.25
2019-02-26T04:05:57.172Z,21.02
2019-02-26T04:08:27.770Z,26.40
2019-02-26T04:11:01.980Z,25.62
2019-02-26T04:13:33.679Z,24.25
2019-02-26T04:16:05.164Z,21.68
2019-02-26T04:18:36.474Z,25.60
2019-02-26T04:21:09.456Z,24.32
2019-02-26T04:23:42.142Z,28.45
2019-02-26T04:26:21.099Z,23.30
2019-02-26T04:29:10.218Z,27.07
2019-02-26T04:31:52.173Z,29.90
2019-02-26T04:34:29.245Z,25.82
2019-02-26T04:37:07.181Z,21.33
2019-02-26T04:39:51.251Z,27.35
2019-02-26T04:42:35.210Z,28.35
2019-02-26T04:45:26.969Z,29.57
2019-02-26T04:48:07.200Z,27.32
2019-02-26T04:50:39.418Z,29.15
2019-02-26T04:53:11.472Z,25.08
2019-02-26T04:55:44.920Z,19.62
2019-02-26T04:58:18.406Z,24.52
2019-02-26T05:00:49.401Z,21.57
2019-02-26T05:03:21.644Z,22.80
2019-02-26T05:05:56.529Z,30.82
2019-02-26T05:08:29.218Z,34.30
2019-02-26T05:13:32.625Z,39.35
2019-02-26T05:18:34.993Z,34.73
2019-02-26T05:21:08.259Z,25.02
2019-02-26T05:23:39.154Z,24.15
2019-02-26T05:26:11.657Z,25.80
2019-02-26T05:31:18.154Z,28.73
2019-02-26T05:33:52.535Z,26.75
2019-02-26T05:36:24.502Z,26.17
2019-02-26T05:38:57.557Z,25.30
2019-02-26T05:41:29.054Z,26.37
2019-02-26T05:44:01.850Z,27.27
2019-02-26T05:49:06.876Z,50.48
2019-02-26T05:51:38.214Z,47.15
2019-02-26T05:56:43.583Z,44.93
2019-02-26T06:01:51.951Z,27.62
2019-02-26T06:04:20.985Z,27.27
2019-02-26T06:06:53.898Z,30.88
2019-02-26T06:09:28.092Z,25.10
2019-02-26T06:11:58.606Z,27.05
2019-02-26T06:14:32.963Z,30.40
2019-02-26T06:19:44.763Z,35.55
2019-02-26T06:22:20.129Z,29.40
2019-02-26T06:27:24.583Z,32.28
2019-02-26T06:29:57.465Z,34.00
2019-02-26T06:32:31.972Z,28.30
2019-02-26T06:35:01.486Z,22.10
2019-02-26T06:37:35.096Z,22.40
2019-02-26T06:42:40.346Z,22.30
2019-02-26T06:45:16.292Z,25.82
2019-02-26T06:47:48.479Z,26.52
2019-02-26T06:50:19.628Z,29.77
2019-02-26T06:52:50.946Z,26.23
2019-02-26T06:55:22.278Z,27.22
2019-02-26T06:57:55.186Z,27.65
2019-02-26T07:00:28.923Z,25.02
2019-02-26T07:05:32.828Z,33.23
2019-02-26T07:08:06.520Z,34.75
2019-02-26T07:13:09.447Z,39.92
2019-02-26T07:18:15.025Z,31.90
2019-02-26T07:23:17.094Z,35.35
2019-02-26T07:25:49.473Z,30.57
2019-02-26T07:28:22.844Z,34.85
2019-02-26T07:30:55.217Z,29.65
2019-02-26T07:33:29.296Z,38.55
2019-02-26T07:36:01.830Z,44.98
2019-02-26T07:38:40.856Z,27.87
2019-02-26T07:41:06.311Z,26.80
2019-02-26T07:43:41.069Z,24.90
2019-02-26T07:46:14.518Z,21.85
2019-02-26T07:48:46.166Z,22.67
2019-02-26T07:53:51.650Z,26.70
2019-02-26T07:56:25.520Z,31.23
2019-02-26T07:59:01.309Z,25.72
2019-02-26T08:01:30.112Z,38.45
2019-02-26T08:04:01.480Z,26.30
2019-02-26T08:06:33.901Z,30.82
2019-02-26T08:09:10.969Z,35.70
2019-02-26T08:11:43.806Z,39.40
2019-02-26T08:16:49.279Z,32.53
2019-02-26T08:19:20.161Z,29.67
2019-02-26T08:21:53.095Z,28.20
2019-02-26T08:24:24.758Z,26.45
2019-02-26T08:26:56.101Z,20.57
2019-02-26T08:29:29.396Z,21.00
2019-02-26T08:34:32.677Z,19.92
2019-02-26T08:37:04.046Z,23.95
2019-02-26T08:39:35.699Z,22.20
2019-02-26T08:44:40.943Z,25.17
2019-02-26T08:47:16.220Z,24.02
2019-02-26T08:52:24.108Z,26.27
2019-02-26T08:54:56.119Z,19.50
2019-02-26T08:57:28.657Z,22.95
2019-02-26T09:00:00.030Z,30.80
2019-02-26T09:02:33.743Z,24.40
2019-02-26T09:05:09.341Z,26.55
2019-02-26T09:07:42.599Z,21.93
2019-02-26T09:10:18.387Z,21.20
2019-02-26T09:12:51.947Z,25.40
2019-02-26T09:15:23.556Z,20.50
2019-02-26T09:17:55.269Z,23.22
2019-02-26T09:20:26.810Z,18.92
2019-02-26T09:23:01.489Z,28.77
2019-02-26T09:25:33.982Z,18.57
2019-02-26T09:28:05.676Z,20.15
2019-02-26T09:30:38.849Z,38.40
2019-02-26T09:33:11.128Z,28.70
2019-02-26T09:35:42.703Z,38.83
2019-02-26T09:38:15.143Z,28.85
2019-02-26T09:40:48.223Z,28.57
2019-02-26T09:43:24.338Z,33.88
2019-02-26T09:45:55.239Z,23.20
2019-02-26T09:48:26.630Z,32.42
2019-02-26T09:50:57.915Z,35.20
2019-02-26T09:53:29.731Z,24.23
2019-02-26T09:56:01.159Z,25.85
2019-02-26T09:58:32.910Z,27.77
2019-02-26T10:01:06.884Z,37.05
2019-02-26T10:03:41.317Z,32.85
2019-02-26T10:06:15.898Z,30.80
2019-02-26T10:08:48.979Z,26.80
2019-02-26T10:13:52.232Z,43.23
2019-02-26T10:16:25.635Z,27.62
2019-02-26T10:18:56.892Z,54.98
2019-02-26T10:21:28.465Z,44.33
2019-02-26T10:24:01.799Z,46.88
2019-02-26T10:26:33.547Z,44.77
2019-02-26T10:29:07.974Z,41.13
2019-02-26T10:34:15.090Z,41.33
2019-02-26T10:39:18.592Z,22.65
2019-02-26T10:41:50.203Z,20.77
2019-02-26T10:44:21.713Z,22.30
2019-02-26T10:46:53.044Z,22.82
2019-02-26T10:49:24.440Z,26.85
2019-02-26T10:51:57.873Z,20.10
2019-02-26T10:57:06.404Z,24.57
2019-02-26T10:59:34.739Z,26.68
2019-02-26T11:02:06.144Z,28.15
2019-02-26T11:04:41.835Z,27.70
2019-02-26T11:07:15.239Z,25.90
2019-02-26T11:12:20.601Z,32.28
2019-02-26T11:17:23.669Z,26.23
2019-02-26T11:19:58.452Z,33.45
2019-02-26T11:22:29.103Z,29.87
2019-02-26T11:25:00.959Z,33.45
2019-02-26T11:27:32.789Z,33.48
2019-02-26T11:30:05.319Z,27.00
2019-02-26T11:32:39.923Z,24.43
2019-02-26T11:37:44.892Z,32.10
2019-02-26T11:40:25.274Z,29.42
2019-02-26T11:42:59.590Z,26.90
2019-02-26T11:45:32.863Z,32.78
2019-02-26T11:48:05.983Z,35.98
2019-02-26T11:53:09.892Z,36.42
2019-02-26T11:55:40.748Z,31.23
2019-02-26T11:58:15.991Z,48.80
2019-02-26T12:00:53.023Z,41.08
2019-02-26T12:03:27.225Z,55.50
2019-02-26T12:06:01.222Z,59.35
2019-02-26T12:08:31.986Z,50.52
2019-02-26T12:11:12.557Z,40.45
2019-02-26T12:13:42.843Z,43.40
2019-02-26T12:16:13.257Z,46.15
2019-02-26T12:18:46.845Z,46.60
2019-02-26T12:23:48.762Z,58.63
2019-02-26T12:26:22.214Z,61.35
2019-02-26T12:28:57.163Z,63.30
2019-02-26T12:31:31.158Z,59.08
2019-02-26T12:34:20.852Z,61.35
2019-02-26T12:36:53.729Z,65.50
2019-02-26T12:39:27.940Z,64.32
2019-02-26T12:41:58.657Z,78.62
2019-02-26T12:44:31.911Z,74.00
2019-02-26T12:49:36.526Z,91.57
2019-02-26T12:54:39.773Z,81.90
2019-02-26T12:57:10.294Z,67.27
2019-02-26T12:59:42.805Z,64.42
2019-02-26T13:02:17.036Z,54.35
2019-02-26T13:04:50.095Z,52.78
2019-02-26T13:07:20.498Z,54.20
2019-02-26T13:12:29.675Z,47.20
2019-02-26T13:17:32.281Z,42.58
2019-02-26T13:20:05.988Z,45.67
2019-02-26T13:22:37.755Z,38.15
2019-02-26T13:25:15.545Z,37.83
2019-02-26T13:27:47.432Z,44.58
2019-02-26T13:30:23.967Z,38.33
2019-02-26T13:32:58.123Z,41.63
2019-02-26T13:38:00.558Z,44.10
2019-02-26T13:45:36.137Z,42.53
2019-02-26T13:48:07.494Z,47.88
2019-02-26T13:50:39.155Z,44.15
2019-02-26T13:53:10.602Z,42.27
2019-02-26T13:55:43.442Z,45.65
2019-02-26T14:00:45.509Z,42.58
2019-02-26T14:03:17.012Z,41.35
2019-02-26T14:05:48.432Z,37.63
2019-02-26T14:08:19.839Z,34.78
2019-02-26T14:10:51.088Z,30.75
2019-02-26T14:13:22.541Z,27.45
2019-02-26T14:15:53.765Z,24.60
2019-02-26T14:18:25.148Z,21.70
2019-02-26T14:20:56.416Z,22.73
2019-02-26T14:23:27.768Z,26.70
2019-02-26T14:26:00.010Z,25.30
2019-02-26T14:28:31.426Z,20.10
2019-02-26T14:31:02.736Z,21.77
2019-02-26T14:33:34.120Z,23.87
2019-02-26T14:36:06.112Z,24.10
2019-02-26T14:38:37.380Z,27.62
2019-02-26T14:41:08.954Z,23.52
2019-02-26T14:43:42.574Z,19.95
2019-02-26T14:46:13.963Z,16.95
2019-02-26T14:48:45.221Z,19.45
2019-02-26T14:51:17.771Z,16.32
2019-02-26T14:56:21.074Z,24.35
2019-02-26T14:58:52.367Z,21.25
2019-02-26T15:01:25.256Z,19.90
2019-02-26T15:03:58.255Z,22.17
2019-02-26T15:06:29.567Z,21.12
2019-02-26T15:09:01.000Z,18.62
2019-02-26T15:11:34.035Z,21.65
2019-02-26T15:14:05.747Z,18.82
2019-02-26T15:16:37.283Z,20.10
2019-02-26T15:19:08.870Z,19.45
2019-02-26T15:21:40.629Z,22.40
2019-02-26T15:24:12.127Z,21.12
2019-02-26T15:26:43.503Z,23.85
2019-02-26T15:29:14.782Z,20.40
2019-02-26T15:31:46.105Z,29.35
2019-02-26T15:34:17.417Z,23.75
2019-02-26T15:36:50.633Z,22.87
2019-02-26T15:39:21.955Z,25.52
2019-02-26T15:44:26.123Z,24.02
2019-02-26T15:46:59.589Z,29.23
2019-02-26T15:49:31.763Z,27.20
2019-02-26T15:52:04.723Z,25.88
2019-02-26T15:54:36.335Z,24.55
2019-02-26T15:57:07.653Z,26.07
2019-02-26T15:59:39.041Z,28.75
2019-02-26T16:02:10.414Z,25.32
2019-02-26T16:04:41.786Z,30.10
2019-02-26T16:07:13.234Z,28.45
2019-02-26T16:09:44.525Z,42.78
2019-02-26T16:12:15.793Z,32.60
2019-02-26T16:14:47.204Z,28.83
2019-02-26T16:17:18.508Z,27.87
2019-02-26T16:19:49.870Z,26.27
2019-02-26T16:22:21.183Z,26.48
2019-02-26T16:24:52.463Z,30.15
2019-02-26T16:27:23.786Z,31.45
2019-02-26T16:29:55.049Z,35.80
2019-02-26T16:32:26.610Z,35.43
2019-02-26T16:34:58.573Z,30.95
2019-02-26T16:37:30.183Z,26.60
2019-02-26T16:40:03.228Z,27.00
2019-02-26T16:42:35.066Z,30.05
2019-02-26T16:45:09.454Z,30.72
2019-02-26T16:47:41.283Z,29.72
2019-02-26T16:50:17.196Z,32.53
2019-02-26T16:52:51.278Z,30.02
2019-02-26T16:55:23.051Z,30.40
2019-02-26T16:57:54.347Z,33.95
2019-02-26T17:00:29.892Z,28.62
2019-02-26T17:03:01.448Z,30.00
2019-02-26T17:05:32.924Z,31.40
2019-02-26T17:08:04.237Z,29.12
2019-02-26T17:10:35.574Z,32.28
2019-02-26T17:13:06.823Z,31.27
2019-02-26T17:15:38.115Z,32.65
2019-02-26T17:18:10.332Z,29.42
2019-02-26T17:20:41.900Z,29.63
2019-02-26T17:23:14.817Z,34.63
2019-02-26T17:25:46.205Z,32.10
2019-02-26T17:28:17.597Z,28.77
2019-02-26T17:30:48.887Z,32.33
2019-02-26T17:33:20.157Z,26.37
2019-02-26T17:35:52.894Z,29.07
2019-02-26T17:38:26.020Z,29.48
2019-02-26T17:40:57.534Z,31.35
2019-02-26T17:43:29.174Z,34.00
2019-02-26T17:46:00.520Z,34.48
2019-02-26T17:48:43.041Z,34.38
2019-02-26T17:53:36.572Z,38.85
2019-02-26T17:56:09.884Z,33.53
2019-02-26T17:58:41.744Z,35.83
2019-02-26T18:01:14.089Z,30.25
2019-02-26T18:03:45.485Z,41.85
2019-02-26T18:06:16.795Z,36.93
2019-02-26T18:08:48.227Z,38.08
2019-02-26T18:11:20.866Z,41.92
2019-02-26T18:13:52.548Z,39.13
2019-02-26T18:16:23.811Z,37.65
2019-02-26T18:18:55.075Z,35.70
2019-02-26T18:21:26.306Z,31.75
2019-02-26T18:23:57.595Z,41.65
2019-02-26T18:26:28.817Z,32.53
2019-02-26T18:29:00.106Z,33.95
2019-02-26T18:31:31.728Z,32.40
2019-02-26T18:34:03.245Z,37.78
2019-02-26T18:36:34.752Z,39.13
2019-02-26T18:39:06.830Z,36.40
2019-02-26T18:41:38.753Z,32.08
2019-02-26T18:44:10.338Z,37.98
2019-02-26T18:46:41.756Z,33.92
2019-02-26T18:49:13.050Z,30.08
2019-02-26T18:51:44.459Z,37.05
2019-02-26T18:54:17.718Z,32.65
2019-02-26T18:56:49.914Z,32.45
2019-02-26T18:59:21.609Z,28.25
2019-02-26T19:01:53.472Z,36.03
2019-02-26T19:04:24.813Z,35.63
2019-02-26T19:06:59.415Z,35.23
2019-02-26T19:09:29.258Z,32.80
2019-02-26T19:12:00.581Z,36.33
2019-02-26T19:14:31.988Z,31.48
2019-02-26T19:17:03.289Z,33.28
2019-02-26T19:19:34.651Z,26.27
2019-02-26T19:22:06.034Z,33.67
2019-02-26T19:24:38.374Z,29.12
2019-02-26T19:27:10.628Z,30.15
2019-02-26T19:29:41.994Z,31.97
2019-02-26T19:32:15.483Z,37.05
2019-02-26T19:34:46.526Z,31.62
2019-02-26T19:37:19.138Z,27.48
2019-02-26T19:39:50.859Z,35.40
2019-02-26T19:42:21.990Z,31.93
2019-02-26T19:44:53.287Z,30.80
2019-02-26T19:47:24.569Z,29.23
2019-02-26T19:49:55.850Z,28.30
2019-02-26T19:52:27.158Z,28.92
2019-02-26T19:54:59.599Z,29.57
2019-02-26T19:57:30.976Z,26.73
2019-02-26T20:00:02.341Z,24.05
2019-02-26T20:02:34.687Z,29.35
2019-02-26T20:05:09.528Z,30.85
2019-02-26T20:07:41.656Z,30.97
2019-02-26T20:10:16.098Z,29.77
2019-02-26T20:12:47.337Z,28.50
2019-02-26T20:15:21.720Z,30.02
2019-02-26T20:17:51.602Z,35.90
2019-02-26T20:20:22.910Z,28.45
2019-02-26T20:22:54.238Z,25.80
2019-02-26T20:25:25.602Z,31.68
2019-02-26T20:28:04.834Z,26.25
2019-02-26T20:30:29.992Z,49.88
2019-02-26T20:33:01.562Z,31.15
2019-02-26T20:35:34.350Z,27.95
2019-02-26T20:38:05.679Z,19.48
2019-02-26T20:40:37.075Z,22.75
2019-02-26T20:43:08.365Z,28.42
2019-02-26T20:45:39.637Z,25.15
2019-02-26T20:48:11.056Z,24.57
2019-02-26T20:50:42.390Z,23.67
2019-02-26T20:53:13.604Z,35.60
2019-02-26T20:55:52.273Z,31.00
2019-02-26T20:58:18.118Z,28.25
2019-02-26T21:00:49.396Z,24.57
2019-02-26T21:03:20.721Z,24.80
2019-02-26T21:05:51.951Z,23.15
2019-02-26T21:08:23.155Z,25.45
2019-02-26T21:10:54.430Z,23.52
2019-02-26T21:13:25.728Z,23.15
2019-02-26T21:15:57.011Z,22.07
2019-02-26T21:18:30.338Z,24.12
2019-02-26T21:21:01.397Z,19.20
2019-02-26T21:23:32.768Z,24.10
2019-02-26T21:26:04.070Z,24.12
2019-02-26T21:28:35.429Z,19.95
2019-02-26T21:31:06.680Z,21.35
2019-02-26T21:33:37.989Z,20.15
2019-02-26T21:36:09.437Z,23.35
2019-02-26T21:38:40.750Z,20.05
2019-02-26T21:41:12.127Z,28.35
2019-02-26T21:43:43.398Z,23.83
2019-02-26T21:46:14.697Z,21.23
2019-02-26T21:48:45.986Z,25.75
2019-02-26T21:51:17.284Z,26.77
2019-02-26T21:53:49.230Z,22.05
2019-02-26T21:56:22.234Z,22.50
2019-02-26T21:58:54.212Z,17.67
2019-02-26T22:01:25.919Z,19.15
2019-02-26T22:03:58.597Z,24.45
2019-02-26T22:06:30.168Z,17.27
2019-02-26T22:09:01.460Z,16.12
2019-02-26T22:11:34.306Z,13.43
2019-02-26T22:14:05.696Z,26.42
2019-02-26T22:16:36.931Z,19.70
2019-02-26T22:19:08.225Z,22.45
2019-02-26T22:21:41.058Z,14.60
2019-02-26T22:24:12.313Z,17.55
2019-02-26T22:26:43.550Z,18.07
2019-02-26T22:29:15.303Z,20.15
2019-02-26T22:31:47.196Z,19.30
2019-02-26T22:34:19.074Z,17.55
2019-02-26T22:36:51.118Z,18.62
2019-02-26T22:39:23.259Z,17.90
2019-02-26T22:41:54.750Z,22.55
2019-02-26T22:44:27.175Z,16.30
2019-02-26T22:46:59.201Z,21.23
2019-02-26T22:49:30.663Z,13.88
2019-02-26T22:52:01.860Z,18.30
2019-02-26T22:54:35.001Z,12.75
2019-02-26T22:57:07.630Z,16.50
2019-02-26T22:59:40.832Z,17.92
2019-02-26T23:02:12.291Z,15.83
2019-02-26T23:04:44.909Z,14.80
2019-02-26T23:07:16.574Z,15.25
2019-02-26T23:09:52.182Z,17.57
2019-02-26T23:12:21.558Z,19.02
2019-02-26T23:14:52.906Z,15.25
2019-02-26T23:17:25.392Z,19.42
2019-02-26T23:19:56.733Z,20.62
2019-02-26T23:22:28.327Z,14.85
2019-02-26T23:25:00.868Z,16.67
2019-02-26T23:27:33.098Z,18.40
2019-02-26T23:30:08.183Z,17.07
2019-02-26T23:32:40.848Z,17.92
2019-02-26T23:35:13.024Z,13.22
2019-02-26T23:37:44.503Z,16.73
2019-02-26T23:40:16.124Z,17.15
2019-02-26T23:42:47.886Z,15.88
2019-02-26T23:45:19.340Z,15.60
2019-02-26T23:47:51.094Z,17.60
2019-02-26T23:50:22.753Z,17.32
2019-02-26T23:52:54.615Z,16.65
2019-02-26T23:55:26.178Z,13.28
2019-02-26T23:57:58.524Z,17.12
